sensor_id;sensor_type;location;lat;lon;timestamp;P1;durP1;ratioP1;P2;durP2;ratioP2
47455;SDS011;33202;48.512;-2.780;2024-01-10T00:00:00;26.27;;;15.60;;
47455;SDS011;33202;48.512;-2.780;2024-01-10T00:02:26;25.58;;;16.08;;
47455;SDS011;33202;48.512;-2.780;2024-01-10T00:04:52;26.50;;;16.40;;
47455;SDS011;33202;48.512;-2.780;2024-01-10T00:07:18;25.05;;;14.90;;
47455;SDS011;33202;48.512;-2.780;2024-01-10T00:09:44;23.42;;;14.52;;
47455;SDS011;33202;48.512;-2.780;2024-01-10T00:12:10;23.80;;;14.70;;
47455;SDS011;33202;48.512;-2.780;2024-01-10T00:14:36;24.25;;;14.98;;
47455;SDS011;33202;48.512;-2.780;2024-01-10T00:17:02;25.30;;;15.45;;
47455;SDS011;33202;48.512;-2.780;2024-01-10T00:19:28;22.92;;;14.85;;
47455;SDS011;33202;48.512;-2.780;2024-01-10T00:21:54;27.88;;;16.35;;
47455;SDS011;33202;48.512;-2.780;2024-01-10T00:24:20;25.25;;;15.77;;
47455;SDS011;33202;48.512;-2.780;2024-01-10T00:26:46;29.05;;;16.92;;
47455;SDS011;33202;48.512;-2.780;2024-01-10T00:29:12;26.95;;;16.20;;
47455;SDS011;33202;48.512;-2.780;2024-01-10T00:31:39;25.45;;;15.82;;
47455;SDS011;33202;48.512;-2.780;2024-01-10T00:34:05;25.35;;;15.77;;
47455;SDS011;33202;48.512;-2.780;2024-01-10T00:36:31;24.35;;;14.77;;
47455;SDS011;33202;48.512;-2.780;2024-01-10T00:38:57;23.55;;;14.85;;
47455;SDS011;33202;48.512;-2.780;2024-01-10T00:41:23;23.48;;;15.50;;
47455;SDS011;33202;48.512;-2.780;2024-01-10T00:43:49;25.98;;;15.90;;
47455;SDS011;33202;48.512;-2.780;2024-01-10T00:46:15;23.52;;;15.23;;
47455;SDS011;33202;48.512;-2.780;2024-01-10T00:48:41;26.00;;;15.85;;
47455;SDS011;33202;48.512;-2.780;2024-01-10T00:51:07;25.98;;;15.52;;
47455;SDS011;33202;48.512;-2.780;2024-01-10T00:53:34;25.38;;;15.75;;
47455;SDS011;33202;48.512;-2.780;2024-01-10T00:56:00;26.37;;;15.43;;
47455;SDS011;33202;48.512;-2.780;2024-01-10T00:58:26;26.35;;;15.70;;
47455;SDS011;33202;48.512;-2.780;2024-01-10T01:00:52;26.30;;;15.50;;
47455;SDS011;33202;48.512;-2.780;2024-01-10T01:03:18;27.42;;;16.58;;
47455;SDS011;33202;48.512;-2.780;2024-01-10T01:05:44;25.83;;;14.90;;
47455;SDS011;33202;48.512;-2.780;2024-01-10T01:08:10;25.90;;;14.93;;
47455;SDS011;33202;48.512;-2.780;2024-01-10T01:10:36;27.30;;;16.25;;
47455;SDS011;33202;48.512;-2.780;2024-01-10T01:13:02;26.55;;;16.35;;
47455;SDS011;33202;48.512;-2.780;2024-01-10T01:15:28;27.30;;;16.17;;
47455;SDS011;33202;48.512;-2.780;2024-01-10T01:17:54;28.50;;;15.63;;
47455;SDS011;33202;48.512;-2.780;2024-01-10T01:20:20;29.88;;;16.73;;
47455;SDS011;33202;48.512;-2.780;2024-01-10T01:22:46;27.35;;;16.52;;
47455;SDS011;33202;48.512;-2.780;2024-01-10T01:25:12;29.27;;;16.55;;
47455;SDS011;33202;48.512;-2.780;2024-01-10T01:27:38;30.85;;;17.13;;
47455;SDS011;33202;48.512;-2.780;2024-01-10T01:30:04;26.83;;;16.67;;
47455;SDS011;33202;48.512;-2.780;2024-01-10T01:32:30;27.75;;;16.77;;
47455;SDS011;33202;48.512;-2.780;2024-01-10T01:34:56;28.90;;;17.15;;
47455;SDS011;33202;48.512;-2.780;2024-01-10T01:37:22;32.40;;;17.20;;
47455;SDS011;33202;48.512;-2.780;2024-01-10T01:39:48;27.27;;;15.85;;
47455;SDS011;33202;48.512;-2.780;2024-01-10T01:42:15;27.98;;;16.42;;
47455;SDS011;33202;48.512;-2.780;2024-01-10T01:44:41;28.33;;;17.20;;
47455;SDS011;33202;48.512;-2.780;2024-01-10T01:47:07;31.02;;;17.75;;
47455;SDS011;33202;48.512;-2.780;2024-01-10T01:49:33;30.70;;;18.70;;
47455;SDS011;33202;48.512;-2.780;2024-01-10T01:51:59;29.50;;;16.80;;
47455;SDS011;33202;48.512;-2.780;2024-01-10T01:54:25;28.40;;;17.08;;
47455;SDS011;33202;48.512;-2.780;2024-01-10T01:56:51;30.98;;;18.75;;
47455;SDS011;33202;48.512;-2.780;2024-01-10T01:59:18;29.73;;;17.35;;
47455;SDS011;33202;48.512;-2.780;2024-01-10T02:01:45;31.83;;;18.52;;
47455;SDS011;33202;48.512;-2.780;2024-01-10T02:04:11;31.63;;;17.83;;
47455;SDS011;33202;48.512;-2.780;2024-01-10T02:06:37;29.13;;;17.65;;
47455;SDS011;33202;48.512;-2.780;2024-01-10T02:09:04;32.85;;;17.67;;
47455;SDS011;33202;48.512;-2.780;2024-01-10T02:11:30;30.65;;;18.77;;
47455;SDS011;33202;48.512;-2.780;2024-01-10T02:13:57;34.15;;;18.40;;
47455;SDS011;33202;48.512;-2.780;2024-01-10T02:16:23;29.48;;;18.02;;
47455;SDS011;33202;48.512;-2.780;2024-01-10T02:18:49;30.45;;;17.92;;
47455;SDS011;33202;48.512;-2.780;2024-01-10T02:21:16;30.00;;;18.20;;
47455;SDS011;33202;48.512;-2.780;2024-01-10T02:23:42;28.83;;;17.83;;
47455;SDS011;33202;48.512;-2.780;2024-01-10T02:26:08;28.35;;;17.92;;
47455;SDS011;33202;48.512;-2.780;2024-01-10T02:28:34;30.70;;;17.90;;
47455;SDS011;33202;48.512;-2.780;2024-01-10T02:31:00;29.67;;;17.45;;
47455;SDS011;33202;48.512;-2.780;2024-01-10T02:33:26;31.10;;;18.10;;
47455;SDS011;33202;48.512;-2.780;2024-01-10T02:35:52;29.27;;;17.60;;
47455;SDS011;33202;48.512;-2.780;2024-01-10T02:38:18;32.15;;;18.05;;
47455;SDS011;33202;48.512;-2.780;2024-01-10T02:43:12;32.13;;;18.08;;
47455;SDS011;33202;48.512;-2.780;2024-01-10T02:45:38;32.80;;;19.38;;
47455;SDS011;33202;48.512;-2.780;2024-01-10T02:48:04;28.05;;;17.48;;
47455;SDS011;33202;48.512;-2.780;2024-01-10T02:50:30;30.90;;;17.95;;
47455;SDS011;33202;48.512;-2.780;2024-01-10T02:52:56;30.90;;;18.17;;
47455;SDS011;33202;48.512;-2.780;2024-01-10T02:55:22;30.60;;;18.95;;
47455;SDS011;33202;48.512;-2.780;2024-01-10T02:57:48;31.70;;;17.90;;
47455;SDS011;33202;48.512;-2.780;2024-01-10T03:00:14;32.10;;;18.27;;
47455;SDS011;33202;48.512;-2.780;2024-01-10T03:02:40;32.05;;;17.90;;
47455;SDS011;33202;48.512;-2.780;2024-01-10T03:05:06;28.95;;;16.85;;
47455;SDS011;33202;48.512;-2.780;2024-01-10T03:07:32;29.52;;;16.73;;
47455;SDS011;33202;48.512;-2.780;2024-01-10T03:09:58;30.80;;;17.65;;
47455;SDS011;33202;48.512;-2.780;2024-01-10T03:12:24;30.48;;;17.75;;
47455;SDS011;33202;48.512;-2.780;2024-01-10T03:14:50;30.13;;;17.92;;
47455;SDS011;33202;48.512;-2.780;2024-01-10T03:17:16;32.25;;;18.13;;
47455;SDS011;33202;48.512;-2.780;2024-01-10T03:19:42;30.92;;;18.27;;
47455;SDS011;33202;48.512;-2.780;2024-01-10T03:22:09;28.05;;;17.48;;
47455;SDS011;33202;48.512;-2.780;2024-01-10T03:24:36;36.05;;;19.15;;
47455;SDS011;33202;48.512;-2.780;2024-01-10T03:27:03;32.35;;;18.42;;
47455;SDS011;33202;48.512;-2.780;2024-01-10T03:29:29;33.58;;;18.85;;
47455;SDS011;33202;48.512;-2.780;2024-01-10T03:31:55;29.10;;;18.02;;
47455;SDS011;33202;48.512;-2.780;2024-01-10T03:34:21;30.90;;;17.98;;
47455;SDS011;33202;48.512;-2.780;2024-01-10T03:36:47;31.00;;;18.48;;
47455;SDS011;33202;48.512;-2.780;2024-01-10T03:39:13;31.02;;;17.75;;
47455;SDS011;33202;48.512;-2.780;2024-01-10T03:41:39;30.70;;;17.58;;
47455;SDS011;33202;48.512;-2.780;2024-01-10T03:44:05;33.92;;;19.13;;
47455;SDS011;33202;48.512;-2.780;2024-01-10T03:46:31;30.23;;;18.13;;
47455;SDS011;33202;48.512;-2.780;2024-01-10T03:48:57;33.90;;;18.23;;
47455;SDS011;33202;48.512;-2.780;2024-01-10T03:51:23;32.55;;;18.35;;
47455;SDS011;33202;48.512;-2.780;2024-01-10T03:53:49;36.53;;;19.38;;
47455;SDS011;33202;48.512;-2.780;2024-01-10T03:56:16;29.67;;;17.33;;
47455;SDS011;33202;48.512;-2.780;2024-01-10T03:58:42;31.17;;;17.75;;
47455;SDS011;33202;48.512;-2.780;2024-01-10T04:01:08;31.40;;;17.80;;
47455;SDS011;33202;48.512;-2.780;2024-01-10T04:03:34;31.27;;;17.55;;
47455;SDS011;33202;48.512;-2.780;2024-01-10T04:06:01;31.63;;;17.50;;
47455;SDS011;33202;48.512;-2.780;2024-01-10T04:08:27;31.27;;;17.70;;
47455;SDS011;33202;48.512;-2.780;2024-01-10T04:10:54;31.35;;;17.92;;
47455;SDS011;33202;48.512;-2.780;2024-01-10T04:13:20;34.70;;;19.02;;
47455;SDS011;33202;48.512;-2.780;2024-01-10T04:15:46;32.28;;;18.60;;
47455;SDS011;33202;48.512;-2.780;2024-01-10T04:18:12;32.50;;;18.77;;
47455;SDS011;33202;48.512;-2.780;2024-01-10T04:20:38;29.25;;;17.00;;
47455;SDS011;33202;48.512;-2.780;2024-01-10T04:23:04;30.58;;;17.77;;
47455;SDS011;33202;48.512;-2.780;2024-01-10T04:25:30;30.40;;;18.38;;
47455;SDS011;33202;48.512;-2.780;2024-01-10T04:27:56;30.85;;;17.85;;
47455;SDS011;33202;48.512;-2.780;2024-01-10T04:30:22;32.20;;;18.40;;
47455;SDS011;33202;48.512;-2.780;2024-01-10T04:32:48;35.75;;;19.17;;
47455;SDS011;33202;48.512;-2.780;2024-01-10T04:35:15;30.38;;;17.85;;
47455;SDS011;33202;48.512;-2.780;2024-01-10T04:37:41;34.70;;;18.83;;
47455;SDS011;33202;48.512;-2.780;2024-01-10T04:40:07;30.95;;;17.98;;
47455;SDS011;33202;48.512;-2.780;2024-01-10T04:42:34;33.53;;;18.77;;
47455;SDS011;33202;48.512;-2.780;2024-01-10T04:45:00;33.28;;;18.55;;
47455;SDS011;33202;48.512;-2.780;2024-01-10T04:47:26;30.33;;;17.20;;
47455;SDS011;33202;48.512;-2.780;2024-01-10T04:49:52;32.95;;;18.80;;
47455;SDS011;33202;48.512;-2.780;2024-01-10T04:52:18;31.83;;;18.23;;
47455;SDS011;33202;48.512;-2.780;2024-01-10T04:54:44;33.05;;;17.77;;
47455;SDS011;33202;48.512;-2.780;2024-01-10T04:57:10;32.65;;;17.85;;
47455;SDS011;33202;48.512;-2.780;2024-01-10T04:59:36;29.77;;;17.33;;
47455;SDS011;33202;48.512;-2.780;2024-01-10T05:02:02;31.95;;;17.90;;
47455;SDS011;33202;48.512;-2.780;2024-01-10T05:04:28;33.08;;;18.02;;
47455;SDS011;33202;48.512;-2.780;2024-01-10T05:06:54;29.75;;;16.80;;
47455;SDS011;33202;48.512;-2.780;2024-01-10T05:09:20;30.98;;;17.40;;
47455;SDS011;33202;48.512;-2.780;2024-01-10T05:11:46;32.75;;;18.27;;
47455;SDS011;33202;48.512;-2.780;2024-01-10T05:14:15;33.80;;;18.10;;
47455;SDS011;33202;48.512;-2.780;2024-01-10T05:16:41;30.33;;;17.30;;
47455;SDS011;33202;48.512;-2.780;2024-01-10T05:19:08;31.33;;;17.52;;
47455;SDS011;33202;48.512;-2.780;2024-01-10T05:21:34;30.98;;;17.58;;
47455;SDS011;33202;48.512;-2.780;2024-01-10T05:24:00;32.40;;;17.88;;
47455;SDS011;33202;48.512;-2.780;2024-01-10T05:26:26;33.25;;;18.33;;
47455;SDS011;33202;48.512;-2.780;2024-01-10T05:28:52;30.55;;;17.50;;
47455;SDS011;33202;48.512;-2.780;2024-01-10T05:31:18;31.42;;;17.67;;
47455;SDS011;33202;48.512;-2.780;2024-01-10T05:33:44;30.90;;;17.98;;
47455;SDS011;33202;48.512;-2.780;2024-01-10T05:36:10;30.58;;;17.55;;
47455;SDS011;33202;48.512;-2.780;2024-01-10T05:38:36;32.60;;;17.98;;
47455;SDS011;33202;48.512;-2.780;2024-01-10T05:41:02;29.40;;;17.00;;
47455;SDS011;33202;48.512;-2.780;2024-01-10T05:43:29;30.63;;;17.40;;
47455;SDS011;33202;48.512;-2.780;2024-01-10T05:45:55;32.60;;;18.20;;
47455;SDS011;33202;48.512;-2.780;2024-01-10T05:48:21;30.77;;;17.00;;
47455;SDS011;33202;48.512;-2.780;2024-01-10T05:50:47;30.55;;;16.88;;
47455;SDS011;33202;48.512;-2.780;2024-01-10T05:53:13;33.10;;;18.52;;
47455;SDS011;33202;48.512;-2.780;2024-01-10T05:55:42;31.50;;;17.15;;
47455;SDS011;33202;48.512;-2.780;2024-01-10T05:58:08;31.35;;;17.23;;
47455;SDS011;33202;48.512;-2.780;2024-01-10T06:00:34;32.63;;;17.60;;
47455;SDS011;33202;48.512;-2.780;2024-01-10T06:03:00;32.60;;;16.85;;
47455;SDS011;33202;48.512;-2.780;2024-01-10T06:05:26;28.05;;;16.73;;
47455;SDS011;33202;48.512;-2.780;2024-01-10T06:07:52;31.77;;;17.73;;
47455;SDS011;33202;48.512;-2.780;2024-01-10T06:10:18;34.50;;;18.50;;
47455;SDS011;33202;48.512;-2.780;2024-01-10T06:12:44;73.40;;;33.17;;
47455;SDS011;33202;48.512;-2.780;2024-01-10T06:15:10;71.45;;;31.67;;
47455;SDS011;33202;48.512;-2.780;2024-01-10T06:17:36;59.38;;;27.90;;
47455;SDS011;33202;48.512;-2.780;2024-01-10T06:20:03;53.53;;;27.67;;
47455;SDS011;33202;48.512;-2.780;2024-01-10T06:22:29;50.28;;;26.05;;
47455;SDS011;33202;48.512;-2.780;2024-01-10T06:24:55;52.80;;;26.63;;
47455;SDS011;33202;48.512;-2.780;2024-01-10T06:27:21;44.90;;;23.55;;
47455;SDS011;33202;48.512;-2.780;2024-01-10T06:29:47;43.38;;;23.50;;
47455;SDS011;33202;48.512;-2.780;2024-01-10T06:32:13;50.13;;;25.17;;
47455;SDS011;33202;48.512;-2.780;2024-01-10T06:34:39;56.20;;;27.08;;
47455;SDS011;33202;48.512;-2.780;2024-01-10T06:37:06;79.63;;;36.47;;
47455;SDS011;33202;48.512;-2.780;2024-01-10T06:39:32;89.05;;;41.50;;
47455;SDS011;33202;48.512;-2.780;2024-01-10T06:41:58;91.90;;;40.78;;
47455;SDS011;33202;48.512;-2.780;2024-01-10T06:44:24;90.68;;;42.20;;
47455;SDS011;33202;48.512;-2.780;2024-01-10T06:46:52;98.85;;;44.72;;
47455;SDS011;33202;48.512;-2.780;2024-01-10T06:49:18;110.72;;;50.03;;
47455;SDS011;33202;48.512;-2.780;2024-01-10T06:51:44;152.88;;;60.38;;
47455;SDS011;33202;48.512;-2.780;2024-01-10T06:54:10;253.15;;;92.38;;
47455;SDS011;33202;48.512;-2.780;2024-01-10T06:56:36;228.35;;;84.97;;
47455;SDS011;33202;48.512;-2.780;2024-01-10T06:59:02;157.63;;;59.22;;
47455;SDS011;33202;48.512;-2.780;2024-01-10T07:01:28;110.70;;;45.25;;
47455;SDS011;33202;48.512;-2.780;2024-01-10T07:03:54;115.70;;;44.88;;
47455;SDS011;33202;48.512;-2.780;2024-01-10T07:06:21;88.05;;;36.85;;
47455;SDS011;33202;48.512;-2.780;2024-01-10T07:08:47;58.58;;;27.02;;
47455;SDS011;33202;48.512;-2.780;2024-01-10T07:11:14;52.15;;;27.30;;
47455;SDS011;33202;48.512;-2.780;2024-01-10T07:13:40;47.20;;;24.63;;
47455;SDS011;33202;48.512;-2.780;2024-01-10T07:16:07;43.07;;;24.20;;
47455;SDS011;33202;48.512;-2.780;2024-01-10T07:18:33;42.42;;;23.75;;
47455;SDS011;33202;48.512;-2.780;2024-01-10T07:20:59;35.78;;;21.30;;
47455;SDS011;33202;48.512;-2.780;2024-01-10T07:23:25;33.22;;;20.10;;
47455;SDS011;33202;48.512;-2.780;2024-01-10T07:25:51;33.45;;;19.45;;
47455;SDS011;33202;48.512;-2.780;2024-01-10T07:28:18;45.22;;;25.48;;
47455;SDS011;33202;48.512;-2.780;2024-01-10T07:30:44;40.95;;;22.55;;
47455;SDS011;33202;48.512;-2.780;2024-01-10T07:33:11;41.08;;;22.83;;
47455;SDS011;33202;48.512;-2.780;2024-01-10T07:35:37;36.17;;;20.50;;
47455;SDS011;33202;48.512;-2.780;2024-01-10T07:38:06;32.53;;;19.75;;
47455;SDS011;33202;48.512;-2.780;2024-01-10T07:40:33;41.20;;;22.60;;
47455;SDS011;33202;48.512;-2.780;2024-01-10T07:42:59;48.78;;;25.77;;
47455;SDS011;33202;48.512;-2.780;2024-01-10T07:45:25;42.92;;;23.45;;
47455;SDS011;33202;48.512;-2.780;2024-01-10T07:47:51;48.53;;;24.55;;
47455;SDS011;33202;48.512;-2.780;2024-01-10T07:50:17;47.30;;;26.17;;
47455;SDS011;33202;48.512;-2.780;2024-01-10T07:52:44;46.05;;;25.20;;
47455;SDS011;33202;48.512;-2.780;2024-01-10T07:55:13;43.72;;;23.58;;
47455;SDS011;33202;48.512;-2.780;2024-01-10T07:57:40;60.28;;;30.92;;
47455;SDS011;33202;48.512;-2.780;2024-01-10T08:00:07;45.83;;;26.07;;
47455;SDS011;33202;48.512;-2.780;2024-01-10T08:02:37;42.28;;;23.33;;
47455;SDS011;33202;48.512;-2.780;2024-01-10T08:05:04;39.22;;;22.40;;
47455;SDS011;33202;48.512;-2.780;2024-01-10T08:07:30;40.30;;;22.05;;
47455;SDS011;33202;48.512;-2.780;2024-01-10T08:09:58;35.45;;;20.85;;
47455;SDS011;33202;48.512;-2.780;2024-01-10T08:12:24;33.80;;;19.70;;
47455;SDS011;33202;48.512;-2.780;2024-01-10T08:14:50;36.38;;;19.65;;
47455;SDS011;33202;48.512;-2.780;2024-01-10T08:17:16;35.05;;;18.95;;
47455;SDS011;33202;48.512;-2.780;2024-01-10T08:19:42;32.25;;;18.88;;
47455;SDS011;33202;48.512;-2.780;2024-01-10T08:22:08;36.50;;;20.45;;
47455;SDS011;33202;48.512;-2.780;2024-01-10T08:24:34;35.33;;;19.98;;
47455;SDS011;33202;48.512;-2.780;2024-01-10T08:27:00;34.67;;;19.67;;
47455;SDS011;33202;48.512;-2.780;2024-01-10T08:29:26;34.38;;;20.23;;
47455;SDS011;33202;48.512;-2.780;2024-01-10T08:31:56;34.95;;;19.30;;
47455;SDS011;33202;48.512;-2.780;2024-01-10T08:34:22;35.33;;;19.67;;
47455;SDS011;33202;48.512;-2.780;2024-01-10T08:36:48;30.75;;;19.23;;
47455;SDS011;33202;48.512;-2.780;2024-01-10T08:39:15;34.28;;;19.35;;
47455;SDS011;33202;48.512;-2.780;2024-01-10T08:41:42;36.38;;;21.10;;
47455;SDS011;33202;48.512;-2.780;2024-01-10T08:44:09;35.20;;;19.60;;
47455;SDS011;33202;48.512;-2.780;2024-01-10T08:46:35;32.65;;;19.08;;
47455;SDS011;33202;48.512;-2.780;2024-01-10T08:49:01;31.95;;;19.35;;
47455;SDS011;33202;48.512;-2.780;2024-01-10T08:51:27;35.38;;;19.92;;
47455;SDS011;33202;48.512;-2.780;2024-01-10T08:53:54;35.90;;;20.90;;
47455;SDS011;33202;48.512;-2.780;2024-01-10T08:56:21;35.70;;;20.05;;
47455;SDS011;33202;48.512;-2.780;2024-01-10T08:58:47;39.03;;;21.42;;
47455;SDS011;33202;48.512;-2.780;2024-01-10T09:01:13;37.75;;;21.83;;
47455;SDS011;33202;48.512;-2.780;2024-01-10T09:03:39;36.65;;;20.70;;
47455;SDS011;33202;48.512;-2.780;2024-01-10T09:06:05;39.95;;;21.52;;
47455;SDS011;33202;48.512;-2.780;2024-01-10T09:08:33;35.97;;;21.13;;
47455;SDS011;33202;48.512;-2.780;2024-01-10T09:10:59;35.25;;;21.02;;
47455;SDS011;33202;48.512;-2.780;2024-01-10T09:13:25;33.97;;;20.25;;
47455;SDS011;33202;48.512;-2.780;2024-01-10T09:15:50;38.47;;;21.50;;
47455;SDS011;33202;48.512;-2.780;2024-01-10T09:18:17;37.33;;;21.38;;
47455;SDS011;33202;48.512;-2.780;2024-01-10T09:20:42;35.97;;;21.23;;
47455;SDS011;33202;48.512;-2.780;2024-01-10T09:23:08;36.05;;;20.50;;
47455;SDS011;33202;48.512;-2.780;2024-01-10T09:25:36;42.20;;;21.65;;
47455;SDS011;33202;48.512;-2.780;2024-01-10T09:28:03;36.10;;;21.40;;
47455;SDS011;33202;48.512;-2.780;2024-01-10T09:30:29;37.70;;;21.58;;
47455;SDS011;33202;48.512;-2.780;2024-01-10T09:32:55;36.53;;;20.67;;
47455;SDS011;33202;48.512;-2.780;2024-01-10T09:35:21;35.28;;;19.30;;
47455;SDS011;33202;48.512;-2.780;2024-01-10T09:37:47;34.67;;;19.90;;
47455;SDS011;33202;48.512;-2.780;2024-01-10T09:40:15;33.97;;;20.48;;
47455;SDS011;33202;48.512;-2.780;2024-01-10T09:42:43;33.58;;;19.33;;
47455;SDS011;33202;48.512;-2.780;2024-01-10T09:45:09;34.92;;;20.00;;
47455;SDS011;33202;48.512;-2.780;2024-01-10T09:47:38;36.08;;;19.65;;
47455;SDS011;33202;48.512;-2.780;2024-01-10T09:50:05;34.75;;;20.58;;
47455;SDS011;33202;48.512;-2.780;2024-01-10T09:52:35;34.80;;;19.83;;
47455;SDS011;33202;48.512;-2.780;2024-01-10T09:55:02;32.28;;;18.77;;
47455;SDS011;33202;48.512;-2.780;2024-01-10T09:57:29;32.63;;;18.98;;
47455;SDS011;33202;48.512;-2.780;2024-01-10T09:59:55;35.43;;;20.30;;
47455;SDS011;33202;48.512;-2.780;2024-01-10T10:02:22;34.45;;;19.02;;
47455;SDS011;33202;48.512;-2.780;2024-01-10T10:04:54;33.50;;;19.02;;
47455;SDS011;33202;48.512;-2.780;2024-01-10T10:07:20;37.45;;;20.63;;
47455;SDS011;33202;48.512;-2.780;2024-01-10T10:09:46;34.55;;;19.80;;
47455;SDS011;33202;48.512;-2.780;2024-01-10T10:12:12;34.42;;;20.15;;
47455;SDS011;33202;48.512;-2.780;2024-01-10T10:14:38;35.53;;;20.20;;
47455;SDS011;33202;48.512;-2.780;2024-01-10T10:17:14;32.80;;;19.23;;
47455;SDS011;33202;48.512;-2.780;2024-01-10T10:19:40;35.70;;;21.25;;
47455;SDS011;33202;48.512;-2.780;2024-01-10T10:22:09;35.78;;;20.02;;
47455;SDS011;33202;48.512;-2.780;2024-01-10T10:24:35;36.38;;;19.77;;
47455;SDS011;33202;48.512;-2.780;2024-01-10T10:27:01;33.05;;;19.40;;
47455;SDS011;33202;48.512;-2.780;2024-01-10T10:29:27;41.65;;;21.45;;
47455;SDS011;33202;48.512;-2.780;2024-01-10T10:31:54;34.38;;;20.73;;
47455;SDS011;33202;48.512;-2.780;2024-01-10T10:34:21;36.33;;;20.77;;
47455;SDS011;33202;48.512;-2.780;2024-01-10T10:36:49;38.03;;;20.70;;
47455;SDS011;33202;48.512;-2.780;2024-01-10T10:39:16;35.00;;;19.95;;
47455;SDS011;33202;48.512;-2.780;2024-01-10T10:41:42;35.03;;;20.13;;
47455;SDS011;33202;48.512;-2.780;2024-01-10T10:44:09;35.70;;;20.52;;
47455;SDS011;33202;48.512;-2.780;2024-01-10T10:46:35;37.80;;;21.60;;
47455;SDS011;33202;48.512;-2.780;2024-01-10T10:49:05;36.40;;;21.80;;
47455;SDS011;33202;48.512;-2.780;2024-01-10T10:51:32;35.85;;;20.33;;
47455;SDS011;33202;48.512;-2.780;2024-01-10T10:53:59;32.95;;;20.08;;
47455;SDS011;33202;48.512;-2.780;2024-01-10T10:56:26;35.33;;;19.83;;
47455;SDS011;33202;48.512;-2.780;2024-01-10T10:58:55;36.45;;;21.35;;
47455;SDS011;33202;48.512;-2.780;2024-01-10T11:01:22;38.27;;;23.03;;
47455;SDS011;33202;48.512;-2.780;2024-01-10T11:03:48;35.22;;;21.10;;
47455;SDS011;33202;48.512;-2.780;2024-01-10T11:06:14;34.90;;;20.27;;
47455;SDS011;33202;48.512;-2.780;2024-01-10T11:08:46;36.10;;;20.55;;
47455;SDS011;33202;48.512;-2.780;2024-01-10T11:11:37;32.03;;;19.45;;
47455;SDS011;33202;48.512;-2.780;2024-01-10T11:22:26;36.25;;;21.20;;
47455;SDS011;33202;48.512;-2.780;2024-01-10T11:24:58;32.75;;;19.58;;
47455;SDS011;33202;48.512;-2.780;2024-01-10T11:27:24;32.30;;;19.08;;
47455;SDS011;33202;48.512;-2.780;2024-01-10T11:29:52;29.27;;;17.42;;
47455;SDS011;33202;48.512;-2.780;2024-01-10T11:32:21;30.53;;;17.73;;
47455;SDS011;33202;48.512;-2.780;2024-01-10T11:34:58;32.08;;;18.45;;
47455;SDS011;33202;48.512;-2.780;2024-01-10T11:37:41;36.42;;;19.45;;
47455;SDS011;33202;48.512;-2.780;2024-01-10T11:40:08;43.83;;;22.38;;
47455;SDS011;33202;48.512;-2.780;2024-01-10T11:42:46;33.38;;;18.98;;
47455;SDS011;33202;48.512;-2.780;2024-01-10T11:45:36;31.95;;;18.65;;
47455;SDS011;33202;48.512;-2.780;2024-01-10T11:50:28;35.50;;;18.98;;
47455;SDS011;33202;48.512;-2.780;2024-01-10T11:52:57;30.60;;;19.00;;
47455;SDS011;33202;48.512;-2.780;2024-01-10T11:58:08;30.73;;;18.63;;
47455;SDS011;33202;48.512;-2.780;2024-01-10T12:00:35;32.50;;;19.17;;
47455;SDS011;33202;48.512;-2.780;2024-01-10T12:03:01;35.80;;;20.05;;
47455;SDS011;33202;48.512;-2.780;2024-01-10T12:05:28;32.28;;;20.45;;
47455;SDS011;33202;48.512;-2.780;2024-01-10T12:07:55;33.75;;;19.48;;
47455;SDS011;33202;48.512;-2.780;2024-01-10T12:10:21;35.80;;;19.40;;
47455;SDS011;33202;48.512;-2.780;2024-01-10T12:12:47;30.55;;;18.77;;
47455;SDS011;33202;48.512;-2.780;2024-01-10T12:15:13;34.45;;;19.80;;
47455;SDS011;33202;48.512;-2.780;2024-01-10T12:17:39;33.25;;;18.92;;
47455;SDS011;33202;48.512;-2.780;2024-01-10T12:20:05;32.22;;;18.73;;
47455;SDS011;33202;48.512;-2.780;2024-01-10T12:22:32;31.98;;;19.95;;
47455;SDS011;33202;48.512;-2.780;2024-01-10T12:25:03;33.00;;;19.02;;
47455;SDS011;33202;48.512;-2.780;2024-01-10T12:27:29;33.45;;;18.98;;
47455;SDS011;33202;48.512;-2.780;2024-01-10T12:29:55;35.20;;;19.75;;
47455;SDS011;33202;48.512;-2.780;2024-01-10T12:32:23;35.67;;;20.55;;
47455;SDS011;33202;48.512;-2.780;2024-01-10T12:34:51;39.75;;;20.13;;
47455;SDS011;33202;48.512;-2.780;2024-01-10T12:37:20;39.50;;;21.48;;
47455;SDS011;33202;48.512;-2.780;2024-01-10T12:39:46;39.08;;;21.10;;
47455;SDS011;33202;48.512;-2.780;2024-01-10T12:42:12;33.60;;;20.58;;
47455;SDS011;33202;48.512;-2.780;2024-01-10T12:44:38;34.42;;;21.70;;
47455;SDS011;33202;48.512;-2.780;2024-01-10T12:47:08;34.85;;;19.40;;
47455;SDS011;33202;48.512;-2.780;2024-01-10T12:49:44;33.08;;;19.08;;
47455;SDS011;33202;48.512;-2.780;2024-01-10T12:52:11;30.73;;;18.55;;
47455;SDS011;33202;48.512;-2.780;2024-01-10T12:57:04;34.90;;;21.30;;
47455;SDS011;33202;48.512;-2.780;2024-01-10T13:01:57;38.38;;;22.23;;
47455;SDS011;33202;48.512;-2.780;2024-01-10T13:04:23;39.42;;;22.02;;
47455;SDS011;33202;48.512;-2.780;2024-01-10T13:06:49;33.38;;;18.58;;
47455;SDS011;33202;48.512;-2.780;2024-01-10T13:09:15;34.55;;;19.60;;
47455;SDS011;33202;48.512;-2.780;2024-01-10T13:11:42;29.58;;;18.20;;
47455;SDS011;33202;48.512;-2.780;2024-01-10T13:14:08;30.48;;;17.52;;
47455;SDS011;33202;48.512;-2.780;2024-01-10T13:16:34;30.58;;;17.40;;
47455;SDS011;33202;48.512;-2.780;2024-01-10T13:19:00;29.52;;;17.08;;
47455;SDS011;33202;48.512;-2.780;2024-01-10T13:21:26;30.17;;;16.98;;
47455;SDS011;33202;48.512;-2.780;2024-01-10T13:23:52;32.72;;;17.48;;
47455;SDS011;33202;48.512;-2.780;2024-01-10T13:26:18;34.33;;;18.98;;
47455;SDS011;33202;48.512;-2.780;2024-01-10T13:28:45;31.10;;;18.95;;
47455;SDS011;33202;48.512;-2.780;2024-01-10T13:31:11;31.27;;;18.88;;
47455;SDS011;33202;48.512;-2.780;2024-01-10T13:33:37;35.22;;;20.42;;
47455;SDS011;33202;48.512;-2.780;2024-01-10T13:36:06;33.88;;;20.52;;
47455;SDS011;33202;48.512;-2.780;2024-01-10T13:38:32;33.58;;;19.83;;
47455;SDS011;33202;48.512;-2.780;2024-01-10T13:40:58;34.08;;;19.50;;
47455;SDS011;33202;48.512;-2.780;2024-01-10T13:43:24;37.03;;;20.95;;
47455;SDS011;33202;48.512;-2.780;2024-01-10T13:45:50;31.92;;;19.25;;
47455;SDS011;33202;48.512;-2.780;2024-01-10T13:48:17;32.93;;;19.90;;
47455;SDS011;33202;48.512;-2.780;2024-01-10T13:50:43;33.95;;;19.60;;
47455;SDS011;33202;48.512;-2.780;2024-01-10T13:53:10;32.58;;;20.02;;
47455;SDS011;33202;48.512;-2.780;2024-01-10T13:55:36;43.67;;;20.45;;
47455;SDS011;33202;48.512;-2.780;2024-01-10T13:58:02;55.53;;;26.13;;
47455;SDS011;33202;48.512;-2.780;2024-01-10T14:00:28;48.67;;;25.23;;
47455;SDS011;33202;48.512;-2.780;2024-01-10T14:02:54;40.70;;;22.95;;
47455;SDS011;33202;48.512;-2.780;2024-01-10T14:05:24;42.03;;;23.27;;
47455;SDS011;33202;48.512;-2.780;2024-01-10T14:07:50;39.38;;;22.85;;
47455;SDS011;33202;48.512;-2.780;2024-01-10T14:10:16;43.38;;;23.85;;
47455;SDS011;33202;48.512;-2.780;2024-01-10T14:12:44;51.92;;;27.83;;
47455;SDS011;33202;48.512;-2.780;2024-01-10T14:15:10;39.35;;;22.90;;
47455;SDS011;33202;48.512;-2.780;2024-01-10T14:17:36;42.28;;;24.02;;
47455;SDS011;33202;48.512;-2.780;2024-01-10T14:20:02;38.60;;;21.83;;
47455;SDS011;33202;48.512;-2.780;2024-01-10T14:22:28;35.13;;;20.88;;
47455;SDS011;33202;48.512;-2.780;2024-01-10T14:24:54;35.65;;;21.10;;